createdAt,value
2018-05-04T00:01:01.246Z,101740.98
2018-05-04T00:03:27.110Z,101747.48
2018-05-04T00:05:52.971Z,101746.61
2018-05-04T00:08:18.887Z,101750.53
2018-05-04T00:10:44.777Z,101750.06
2018-05-04T00:13:10.639Z,101746.57
2018-05-04T00:15:36.537Z,101757.91
2018-05-04T00:18:02.401Z,101761.36
2018-05-04T00:20:28.269Z,101766.50
2018-05-04T00:22:54.202Z,101768.70
2018-05-04T00:25:20.066Z,101762.98
2018-05-04T00:27:45.927Z,101768.21
2018-05-04T00:30:11.829Z,101762.52
2018-05-04T00:32:37.671Z,101761.60
2018-05-04T00:35:03.523Z,101766.41
2018-05-04T00:37:29.820Z,101769.86
2018-05-04T00:39:55.762Z,101772.00
2018-05-04T00:42:21.617Z,101779.83
2018-05-04T00:44:47.511Z,101774.53
2018-05-04T00:47:13.354Z,101774.95
2018-05-04T00:49:39.203Z,101781.03
2018-05-04T00:52:05.361Z,101783.64
2018-05-04T00:54:31.218Z,101787.52
2018-05-04T00:56:57.070Z,101785.72
2018-05-04T00:59:23.026Z,101791.80
2018-05-04T01:01:48.854Z,101789.20
2018-05-04T01:04:14.806Z,101795.69
2018-05-04T01:06:40.719Z,101791.72
2018-05-04T01:09:06.583Z,101797.80
2018-05-04T01:11:32.439Z,101793.48
2018-05-04T01:13:58.352Z,101805.13
2018-05-04T01:16:24.332Z,101813.02
2018-05-04T01:18:50.179Z,101803.83
2018-05-04T01:21:16.112Z,101808.23
2018-05-04T01:23:41.959Z,101809.49
2018-05-04T01:26:07.803Z,101794.17
2018-05-04T01:28:33.784Z,101798.52
2018-05-04T01:30:59.648Z,101808.50
2018-05-04T01:33:25.512Z,101815.03
2018-05-04T01:35:51.420Z,101820.30
2018-05-04T01:38:17.288Z,101821.13
2018-05-04T01:40:43.230Z,101820.60
2018-05-04T01:43:09.295Z,101829.28
2018-05-04T01:45:35.144Z,101813.53
2018-05-04T01:48:01.002Z,101820.55
2018-05-04T01:50:26.928Z,101823.52
2018-05-04T01:52:52.859Z,101818.25
2018-05-04T01:55:18.716Z,101829.13
2018-05-04T01:57:44.689Z,101823.02
2018-05-04T02:00:10.551Z,101832.55
2018-05-04T02:02:36.387Z,101828.58
2018-05-04T02:05:02.415Z,101823.73
2018-05-04T02:07:28.276Z,101830.25
2018-05-04T02:09:54.132Z,101831.57
2018-05-04T02:12:20.027Z,101833.66
2018-05-04T02:14:45.874Z,101837.20
2018-05-04T02:17:11.807Z,101828.83
2018-05-04T02:19:37.724Z,101836.77
2018-05-04T02:22:03.592Z,101838.03
2018-05-04T02:24:29.451Z,101844.01
2018-05-04T02:26:55.355Z,101836.11
2018-05-04T02:29:21.312Z,101839.57
2018-05-04T02:31:47.173Z,101834.80
2018-05-04T02:34:13.481Z,101834.66
2018-05-04T02:36:39.355Z,101831.42
2018-05-04T02:39:05.227Z,101840.77
2018-05-04T02:41:31.216Z,101847.77
2018-05-04T02:43:57.085Z,101852.88
2018-05-04T02:46:22.944Z,101847.61
2018-05-04T02:48:48.839Z,101843.72
2018-05-04T02:51:14.679Z,101850.30
2018-05-04T02:53:40.694Z,101858.44
2018-05-04T02:56:06.605Z,101861.36
2018-05-04T02:58:32.459Z,101848.25
2018-05-04T03:00:58.307Z,101839.05
2018-05-04T03:03:24.571Z,101849.89
2018-05-04T03:05:50.519Z,101849.12
2018-05-04T03:08:16.367Z,101851.66
2018-05-04T03:10:42.251Z,101858.08
2018-05-04T03:13:08.103Z,101847.55
2018-05-04T03:15:33.952Z,101843.58
2018-05-04T03:17:59.949Z,101841.32
2018-05-04T03:20:25.848Z,101846.02
2018-05-04T03:22:51.703Z,101845.62
2018-05-04T03:25:17.615Z,101850.87
2018-05-04T03:27:43.563Z,101851.63
2018-05-04T03:30:09.460Z,101848.19
2018-05-04T03:32:35.772Z,101853.16
2018-05-04T03:35:01.648Z,101857.05
2018-05-04T03:37:27.501Z,101862.09
2018-05-04T03:39:53.462Z,101855.64
2018-05-04T03:42:19.405Z,101853.41
2018-05-04T03:44:45.263Z,101854.64
2018-05-04T03:47:11.191Z,101854.70
2018-05-04T03:49:37.038Z,101853.74
2018-05-04T03:52:02.915Z,101847.68
2018-05-04T03:54:28.917Z,101846.51
2018-05-04T03:57:07.075Z,101845.20
2018-05-04T04:02:50.942Z,101832.62
2018-05-04T04:05:16.927Z,101832.59
2018-05-04T04:07:42.813Z,101837.10
2018-05-04T04:10:08.676Z,101825.73
2018-05-04T04:12:34.597Z,101829.19
2018-05-04T04:15:00.443Z,101824.11
2018-05-04T04:17:26.381Z,101834.60
2018-05-04T04:19:52.491Z,101832.98
2018-05-04T04:22:18.343Z,101823.03
2018-05-04T04:24:44.192Z,101827.48
2018-05-04T04:27:10.082Z,101823.69
2018-05-04T04:29:36.029Z,101828.15
2018-05-04T04:32:01.896Z,101828.22
2018-05-04T04:34:28.210Z,101831.92
2018-05-04T04:36:54.091Z,101838.53
2018-05-04T04:39:21.794Z,101838.16
2018-05-04T04:41:47.792Z,101843.88
2018-05-04T04:44:13.680Z,101838.79
2018-05-04T04:46:39.575Z,101841.52
2018-05-04T04:49:05.488Z,101844.77
2018-05-04T04:51:31.384Z,101850.97
2018-05-04T04:53:57.324Z,101848.89
2018-05-04T04:56:23.231Z,101848.64
2018-05-04T04:58:49.815Z,101851.79
2018-05-04T05:01:15.693Z,101858.05
2018-05-04T05:03:41.638Z,101856.91
2018-05-04T05:06:07.592Z,101854.84
2018-05-04T05:08:33.454Z,101852.80
2018-05-04T05:10:59.443Z,101859.39
2018-05-04T05:13:25.265Z,101868.23
2018-05-04T05:15:51.110Z,101863.98
2018-05-04T05:18:17.169Z,101865.80
2018-05-04T05:20:43.043Z,101878.10
2018-05-04T05:23:08.894Z,101878.63
2018-05-04T05:25:34.803Z,101885.20
2018-05-04T05:28:00.697Z,101881.73
2018-05-04T05:30:26.729Z,101881.77
2018-05-04T05:32:52.830Z,101880.01
2018-05-04T05:35:18.671Z,101884.40
2018-05-04T05:37:44.609Z,101879.12
2018-05-04T05:40:10.857Z,101890.51
2018-05-04T05:42:36.720Z,101895.32
2018-05-04T05:45:02.599Z,101892.66
2018-05-04T05:47:28.518Z,101892.19
2018-05-04T05:49:54.498Z,101902.69
2018-05-04T05:52:20.357Z,101895.20
2018-05-04T05:54:46.259Z,101892.09
2018-05-04T05:57:12.124Z,101907.41
2018-05-04T06:02:09.607Z,101906.41
2018-05-04T06:04:35.470Z,101917.36
2018-05-04T06:07:01.342Z,101917.31
2018-05-04T06:09:27.413Z,101919.84
2018-05-04T06:11:53.209Z,101914.97
2018-05-04T06:14:19.135Z,101913.59
2018-05-04T06:16:45.035Z,101925.37
2018-05-04T06:19:10.887Z,101925.66
2018-05-04T06:21:36.755Z,101927.34
2018-05-04T06:24:02.664Z,101926.39
2018-05-04T06:26:28.539Z,101921.02
2018-05-04T06:28:54.387Z,101920.98
2018-05-04T06:31:20.301Z,101917.31
2018-05-04T06:33:46.219Z,101922.94
2018-05-04T06:36:12.099Z,101925.88
2018-05-04T06:38:38.028Z,101924.38
2018-05-04T06:41:03.909Z,101931.76
2018-05-04T06:43:29.791Z,101935.14
2018-05-04T06:45:55.684Z,101938.02
2018-05-04T06:48:21.582Z,101932.30
2018-05-04T06:50:47.486Z,101941.98
2018-05-04T06:53:13.477Z,101949.80
2018-05-04T06:55:39.314Z,101948.86
2018-05-04T06:58:05.289Z,101952.62
2018-05-04T07:00:31.414Z,101959.92
2018-05-04T07:02:57.283Z,101958.86
2018-05-04T07:05:23.155Z,101956.92
2018-05-04T07:07:49.117Z,101953.20
2018-05-04T07:10:15.065Z,101947.84
2018-05-04T07:12:40.935Z,101952.56
2018-05-04T07:15:06.913Z,101952.61
2018-05-04T07:17:32.757Z,101958.16
2018-05-04T07:19:58.966Z,101955.25
2018-05-04T07:22:24.883Z,101956.90
2018-05-04T07:24:50.735Z,101959.44
2018-05-04T07:27:16.720Z,101963.00
2018-05-04T07:29:42.640Z,101965.77
2018-05-04T07:32:08.527Z,101969.50
2018-05-04T07:34:34.438Z,101963.38
2018-05-04T07:37:00.351Z,101961.67
2018-05-04T07:39:26.211Z,101960.64
2018-05-04T07:41:52.071Z,101956.84
2018-05-04T07:44:18.003Z,101963.93
2018-05-04T07:46:43.917Z,101960.19
2018-05-04T07:49:09.775Z,101959.63
2018-05-04T07:51:35.781Z,101951.56
2018-05-04T07:54:01.740Z,101953.30
2018-05-04T07:56:35.754Z,101957.18
2018-05-04T07:59:01.629Z,101965.56
2018-05-04T08:01:27.489Z,101964.84
2018-05-04T08:03:53.461Z,101963.83
2018-05-04T08:06:19.329Z,101966.28
2018-05-04T08:08:45.199Z,101968.98
2018-05-04T08:11:11.093Z,101966.49
2018-05-04T08:13:36.975Z,101967.78
2018-05-04T08:16:02.843Z,101968.20
2018-05-04T08:18:28.773Z,101970.20
2018-05-04T08:21:01.284Z,101966.41
2018-05-04T08:23:27.152Z,101969.20
2018-05-04T08:25:53.091Z,101964.05
2018-05-04T08:28:18.994Z,101970.20
2018-05-04T08:30:44.878Z,101965.76
2018-05-04T08:33:10.772Z,101966.45
2018-05-04T08:35:36.627Z,101965.25
2018-05-04T08:38:02.519Z,101969.70
2018-05-04T08:40:28.425Z,101968.63
2018-05-04T08:42:54.355Z,101969.93
2018-05-04T08:45:20.168Z,101961.28
2018-05-04T08:47:46.088Z,101957.04
2018-05-04T08:50:11.977Z,101963.99
2018-05-04T08:52:37.852Z,101958.72
2018-05-04T08:55:03.760Z,101952.84
2018-05-04T08:57:29.724Z,101959.47
2018-05-04T08:59:55.557Z,101957.56
2018-05-04T09:02:21.855Z,101956.09
2018-05-04T09:04:47.904Z,101960.75
2018-05-04T09:07:13.851Z,101954.39
2018-05-04T09:09:39.828Z,101949.73
2018-05-04T09:12:05.723Z,101950.56
2018-05-04T09:14:31.600Z,101953.48
2018-05-04T09:16:57.531Z,101959.59
2018-05-04T09:19:23.404Z,101950.91
2018-05-04T09:21:49.340Z,101948.98
2018-05-04T09:24:15.241Z,101940.69
2018-05-04T09:26:41.117Z,101945.94
2018-05-04T09:29:07.007Z,101947.09
2018-05-04T09:31:32.941Z,101940.45
2018-05-04T09:33:58.851Z,101938.47
2018-05-04T09:36:24.722Z,101943.44
2018-05-04T09:38:50.623Z,101936.34
2018-05-04T09:41:16.470Z,101940.72
2018-05-04T09:43:42.422Z,101934.90
2018-05-04T09:46:08.278Z,101931.87
2018-05-04T09:48:34.146Z,101931.03
2018-05-04T09:51:00.039Z,101936.06
2018-05-04T09:53:25.966Z,101927.92
2018-05-04T09:55:51.978Z,101931.25
2018-05-04T09:58:17.825Z,101929.12
2018-05-04T10:00:43.737Z,101934.20
2018-05-04T10:03:09.607Z,101936.28
2018-05-04T10:05:35.518Z,101937.22
2018-05-04T10:08:01.520Z,101945.11
2018-05-04T10:10:27.407Z,101930.95
2018-05-04T10:12:53.288Z,101931.19
2018-05-04T10:15:20.171Z,101927.16
2018-05-04T10:17:46.122Z,101928.45
2018-05-04T10:20:11.970Z,101930.67
2018-05-04T10:22:37.991Z,101935.46
2018-05-04T10:25:04.244Z,101932.73
2018-05-04T10:27:30.296Z,101931.50
2018-05-04T10:29:58.960Z,101922.64
2018-05-04T10:32:25.053Z,101930.85
2018-05-04T10:34:50.919Z,101925.73
2018-05-04T10:37:16.981Z,101929.04
2018-05-04T10:39:43.467Z,101923.95
2018-05-04T10:42:09.340Z,101926.16
2018-05-04T10:44:35.416Z,101922.13
2018-05-04T10:47:01.352Z,101927.02
2018-05-04T10:49:27.361Z,101928.94
2018-05-04T10:51:53.362Z,101926.81
2018-05-04T10:54:19.260Z,101928.27
2018-05-04T10:56:45.141Z,101918.62
2018-05-04T10:59:11.112Z,101923.72
2018-05-04T11:01:36.987Z,101926.28
2018-05-04T11:04:02.998Z,101926.47
2018-05-04T11:06:28.984Z,101921.66
2018-05-04T11:08:55.082Z,101920.97
2018-05-04T11:11:21.068Z,101917.72
2018-05-04T11:13:46.977Z,101910.95
2018-05-04T11:16:12.925Z,101906.22
2018-05-04T11:18:38.780Z,101905.05
2018-05-04T11:21:04.736Z,101903.16
2018-05-04T11:23:30.605Z,101899.52
2018-05-04T11:25:56.562Z,101903.81
2018-05-04T11:28:22.538Z,101900.61
2018-05-04T11:30:48.441Z,101906.00
2018-05-04T11:33:14.311Z,101919.02
2018-05-04T11:35:40.247Z,101915.11
2018-05-04T11:38:06.107Z,101915.47
2018-05-04T11:40:32.039Z,101906.87
2018-05-04T11:42:57.974Z,101907.67
2018-05-04T11:45:23.845Z,101906.66
2018-05-04T11:47:49.730Z,101910.05
2018-05-04T11:50:15.643Z,101910.97
2018-05-04T11:52:41.636Z,101904.03
2018-05-04T11:55:07.610Z,101909.19
2018-05-04T11:57:33.552Z,101912.48
2018-05-04T11:59:59.408Z,101909.66
2018-05-04T12:02:25.369Z,101914.52
2018-05-04T12:04:51.342Z,101908.71
2018-05-04T12:07:17.243Z,101908.98
2018-05-04T12:09:43.147Z,101915.02
2018-05-04T12:12:09.068Z,101911.84
2018-05-04T12:14:34.927Z,101906.62
2018-05-04T12:17:00.811Z,101907.23
2018-05-04T12:19:26.804Z,101910.47
2018-05-04T12:21:52.663Z,101904.76
2018-05-04T12:24:18.573Z,101901.88
2018-05-04T12:26:44.560Z,101909.84
2018-05-04T12:29:10.433Z,101907.64
2018-05-04T12:31:36.372Z,101912.30
2018-05-04T12:34:02.322Z,101905.23
2018-05-04T12:36:28.191Z,101914.30
2018-05-04T12:38:54.147Z,101910.66
2018-05-04T12:41:20.070Z,101904.12
2018-05-04T12:43:45.966Z,101902.29
2018-05-04T12:46:11.817Z,101898.63
2018-05-04T12:48:37.720Z,101895.81
2018-05-04T12:51:03.576Z,101899.04
2018-05-04T12:53:29.602Z,101898.58
2018-05-04T12:55:55.503Z,101895.59
2018-05-04T12:58:28.329Z,101891.05
2018-05-04T13:00:54.211Z,101904.04
2018-05-04T13:03:20.150Z,101893.63
2018-05-04T13:05:46.025Z,101897.64
2018-05-04T13:08:11.923Z,101892.73
2018-05-04T13:10:37.840Z,101897.53
2018-05-04T13:13:03.715Z,101897.67
2018-05-04T13:15:29.591Z,101893.67
2018-05-04T13:17:55.516Z,101891.05
2018-05-04T13:20:21.487Z,101893.51
2018-05-04T13:22:47.354Z,101892.82
2018-05-04T13:25:13.939Z,101887.48
2018-05-04T13:27:39.813Z,101873.91
2018-05-04T13:30:05.682Z,101871.88
2018-05-04T13:32:31.673Z,101874.96
2018-05-04T13:34:57.544Z,101874.28
2018-05-04T13:37:23.431Z,101874.89
2018-05-04T13:39:49.399Z,101870.89
2018-05-04T13:42:15.406Z,101867.64
2018-05-04T13:44:41.375Z,101861.34
2018-05-04T13:47:07.393Z,101861.36
2018-05-04T13:49:33.246Z,101855.14
2018-05-04T13:51:59.327Z,101857.70
2018-05-04T13:54:25.270Z,101857.20
2018-05-04T13:56:51.248Z,101853.98
2018-05-04T13:59:17.132Z,101845.75
2018-05-04T14:01:43.072Z,101855.45
2018-05-04T14:04:08.967Z,101847.55
2018-05-04T14:06:34.912Z,101854.71
2018-05-04T14:09:00.872Z,101841.39
2018-05-04T14:11:26.747Z,101844.75
2018-05-04T14:13:52.691Z,101840.28
2018-05-04T14:16:18.637Z,101850.05
2018-05-04T14:18:44.516Z,101845.82
2018-05-04T14:21:10.408Z,101854.45
2018-05-04T14:23:36.769Z,101854.86
2018-05-04T14:26:02.640Z,101843.69
2018-05-04T14:28:28.520Z,101847.53
2018-05-04T14:30:54.446Z,101849.56
2018-05-04T14:33:20.363Z,101858.06
2018-05-04T14:35:46.248Z,101851.03
2018-05-04T14:38:12.192Z,101850.47
2018-05-04T14:40:38.049Z,101854.23
2018-05-04T14:43:03.926Z,101854.84
2018-05-04T14:45:29.844Z,101857.56
2018-05-04T14:47:55.733Z,101857.59
2018-05-04T14:50:21.590Z,101849.14
2018-05-04T14:52:47.524Z,101844.83
2018-05-04T14:55:13.385Z,101842.09
2018-05-04T14:57:39.255Z,101846.83
2018-05-04T15:00:05.197Z,101838.56
2018-05-04T15:02:31.079Z,101844.25
2018-05-04T15:04:56.940Z,101849.78
2018-05-04T15:07:22.877Z,101848.10
2018-05-04T15:09:48.819Z,101845.64
2018-05-04T15:12:14.682Z,101838.00
2018-05-04T15:14:40.646Z,101845.70
2018-05-04T15:17:06.529Z,101846.04
2018-05-04T15:19:32.405Z,101852.45
2018-05-04T15:21:58.711Z,101851.34
2018-05-04T15:24:24.578Z,101846.52
2018-05-04T15:26:50.440Z,101850.00
2018-05-04T15:29:17.243Z,101848.53
2018-05-04T15:31:43.096Z,101852.02
2018-05-04T15:34:09.985Z,101853.28
2018-05-04T15:36:35.912Z,101847.80
2018-05-04T15:39:01.811Z,101849.12
2018-05-04T15:41:27.993Z,101856.78
2018-05-04T15:43:53.911Z,101850.57
2018-05-04T15:46:19.904Z,101851.88
2018-05-04T15:48:51.966Z,101847.62
2018-05-04T15:51:24.379Z,101851.71
2018-05-04T15:53:50.588Z,101852.48
2018-05-04T15:56:16.471Z,101853.38
2018-05-04T15:58:42.487Z,101857.44
2018-05-04T16:01:08.367Z,101857.26
2018-05-04T16:03:34.383Z,101861.80
2018-05-04T16:06:00.321Z,101854.04
2018-05-04T16:08:26.198Z,101855.02
2018-05-04T16:10:52.904Z,101859.69
2018-05-04T16:13:18.803Z,101853.59
2018-05-04T16:15:44.696Z,101856.98
2018-05-04T16:18:10.547Z,101853.39
2018-05-04T16:20:36.628Z,101854.23
2018-05-04T16:23:02.596Z,101849.51
2018-05-04T16:25:28.475Z,101853.52
2018-05-04T16:27:54.397Z,101857.15
2018-05-04T16:30:20.364Z,101855.20
2018-05-04T16:32:46.292Z,101848.77
2018-05-04T16:35:12.333Z,101853.70
2018-05-04T16:37:38.381Z,101849.48
2018-05-04T16:40:04.283Z,101849.19
2018-05-04T16:42:30.194Z,101851.52
2018-05-04T16:44:56.088Z,101850.17
2018-05-04T16:47:22.154Z,101850.79
2018-05-04T16:49:48.070Z,101848.41
2018-05-04T16:52:14.688Z,101851.89
2018-05-04T16:54:40.633Z,101854.16
2018-05-04T16:57:06.871Z,101860.14
2018-05-04T16:59:32.792Z,101860.91
2018-05-04T17:01:58.677Z,101859.69
2018-05-04T17:04:24.915Z,101860.67
2018-05-04T17:06:50.799Z,101869.95
2018-05-04T17:09:16.779Z,101862.41
2018-05-04T17:11:42.812Z,101865.08
2018-05-04T17:14:08.691Z,101871.95
2018-05-04T17:16:34.600Z,101880.98
2018-05-04T17:19:00.563Z,101880.74
2018-05-04T17:21:26.530Z,101881.95
2018-05-04T17:23:52.401Z,101889.98
2018-05-04T17:26:18.623Z,101884.97
2018-05-04T17:28:44.499Z,101893.06
2018-05-04T17:31:10.393Z,101892.48
2018-05-04T17:33:36.319Z,101890.64
2018-05-04T17:36:02.187Z,101898.06
2018-05-04T17:38:28.059Z,101905.42
2018-05-04T17:40:53.975Z,101905.54
2018-05-04T17:43:19.842Z,101904.67
2018-05-04T17:45:45.705Z,101914.75
2018-05-04T17:48:11.602Z,101910.09
2018-05-04T17:50:37.458Z,101916.55
2018-05-04T17:53:03.407Z,101914.00
2018-05-04T17:55:29.342Z,101917.34
2018-05-04T17:57:55.187Z,101921.48
2018-05-04T18:00:21.984Z,101918.03
2018-05-04T18:02:47.883Z,101923.31
2018-05-04T18:05:13.832Z,101920.03
2018-05-04T18:07:39.694Z,101926.42
2018-05-04T18:10:05.788Z,101935.20
2018-05-04T18:12:31.663Z,101933.22
2018-05-04T18:14:57.599Z,101931.37
2018-05-04T18:17:23.563Z,101937.91
2018-05-04T18:19:49.415Z,101935.98
2018-05-04T18:22:15.278Z,101934.32
2018-05-04T18:24:41.243Z,101935.44
2018-05-04T18:27:07.119Z,101933.24
2018-05-04T18:29:32.980Z,101940.97
2018-05-04T18:31:58.896Z,101939.02
2018-05-04T18:34:24.837Z,101939.70
2018-05-04T18:36:50.636Z,101949.19
2018-05-04T18:39:16.535Z,101949.47
2018-05-04T18:41:42.384Z,101956.78
2018-05-04T18:44:08.228Z,101951.09
2018-05-04T18:46:34.214Z,101950.38
2018-05-04T18:49:00.077Z,101962.84
2018-05-04T18:51:25.927Z,101968.27
2018-05-04T18:53:51.843Z,101967.12
2018-05-04T18:56:17.692Z,101976.04
2018-05-04T18:58:43.569Z,101974.87
2018-05-04T19:01:09.486Z,101989.95
2018-05-04T19:03:35.452Z,101990.05
2018-05-04T19:06:01.306Z,101995.02
2018-05-04T19:08:27.213Z,101995.53
2018-05-04T19:10:53.095Z,101997.83
2018-05-04T19:13:18.939Z,102002.31
2018-05-04T19:15:44.834Z,102012.09
2018-05-04T19:18:10.741Z,102005.58
2018-05-04T19:20:36.680Z,102004.78
2018-05-04T19:23:02.556Z,102007.45
2018-05-04T19:25:28.428Z,102018.31
2018-05-04T19:27:54.300Z,102017.80
2018-05-04T19:30:20.183Z,102020.08
2018-05-04T19:32:46.037Z,102028.41
2018-05-04T19:35:11.898Z,102026.66
2018-05-04T19:37:37.902Z,102029.66
2018-05-04T19:40:03.786Z,102030.64
2018-05-04T19:42:29.759Z,102030.91
2018-05-04T19:44:55.650Z,102035.83
2018-05-04T19:47:21.509Z,102045.15
2018-05-04T19:49:47.367Z,102051.77
2018-05-04T19:52:13.292Z,102052.75
2018-05-04T19:54:39.161Z,102055.80
2018-05-04T19:57:05.032Z,102056.67
2018-05-04T19:59:30.931Z,102061.11
2018-05-04T20:01:56.784Z,102060.72
2018-05-04T20:04:22.687Z,102057.67
2018-05-04T20:06:48.673Z,102063.00
2018-05-04T20:09:14.531Z,102064.84
2018-05-04T20:11:40.379Z,102063.91
2018-05-04T20:14:06.287Z,102071.88
2018-05-04T20:16:32.160Z,102071.38
2018-05-04T20:18:58.056Z,102077.95
2018-05-04T20:21:23.970Z,102074.88
2018-05-04T20:23:49.854Z,102082.88
2018-05-04T20:26:15.716Z,102091.27
2018-05-04T20:28:41.607Z,102090.05
2018-05-04T20:31:07.487Z,102095.80
2018-05-04T20:33:33.347Z,102095.28
2018-05-04T20:35:59.259Z,102097.11
2018-05-04T20:38:25.164Z,102097.55
2018-05-04T20:40:51.045Z,102104.64
2018-05-04T20:43:16.957Z,102106.91
2018-05-04T20:45:42.811Z,102113.55
2018-05-04T20:48:08.663Z,102114.84
2018-05-04T20:50:34.570Z,102117.92
2018-05-04T20:53:00.461Z,102119.28
2018-05-04T20:55:26.312Z,102121.92
2018-05-04T20:57:52.203Z,102130.75
2018-05-04T21:00:18.062Z,102133.88
2018-05-04T21:02:43.922Z,102129.95
2018-05-04T21:05:09.928Z,102130.00
2018-05-04T21:07:36.199Z,102131.34
2018-05-04T21:10:02.189Z,102134.45
2018-05-04T21:12:28.100Z,102140.59
2018-05-04T21:14:53.952Z,102135.80
2018-05-04T21:17:19.805Z,102134.94
2018-05-04T21:19:45.706Z,102129.70
2018-05-04T21:22:11.582Z,102133.60
2018-05-04T21:24:37.472Z,102142.87
2018-05-04T21:27:03.793Z,102145.05
2018-05-04T21:29:29.680Z,102146.83
2018-05-04T21:31:55.539Z,102147.26
2018-05-04T21:34:21.442Z,102145.55
2018-05-04T21:36:47.353Z,102146.84
2018-05-04T21:39:13.228Z,102149.91
2018-05-04T21:41:39.539Z,102143.78
2018-05-04T21:44:05.394Z,102143.78
2018-05-04T21:46:31.275Z,102149.04
2018-05-04T21:48:57.320Z,102151.68
2018-05-04T21:51:23.194Z,102154.69
2018-05-04T21:53:49.091Z,102154.25
2018-05-04T21:56:15.074Z,102160.39
2018-05-04T21:58:40.867Z,102159.94
2018-05-04T22:01:06.722Z,102153.78
2018-05-04T22:03:32.625Z,102162.98
2018-05-04T22:05:58.483Z,102161.66
2018-05-04T22:08:24.345Z,102162.95
2018-05-04T22:10:50.316Z,102166.89
2018-05-04T22:13:16.202Z,102172.55
2018-05-04T22:15:42.043Z,102171.22
2018-05-04T22:18:07.968Z,102167.28
2018-05-04T22:20:33.843Z,102168.56
2018-05-04T22:22:59.691Z,102168.09
2018-05-04T22:25:25.587Z,102175.05
2018-05-04T22:27:51.438Z,102171.09
2018-05-04T22:30:17.282Z,102168.44
2018-05-04T22:32:43.204Z,102170.14
2018-05-04T22:35:09.115Z,102175.39
2018-05-04T22:37:34.985Z,102180.17
2018-05-04T22:40:00.900Z,102181.04
2018-05-04T22:42:27.023Z,102187.55
2018-05-04T22:44:53.102Z,102192.34
2018-05-04T22:47:19.007Z,102183.58
2018-05-04T22:49:44.904Z,102188.38
2018-05-04T22:52:10.768Z,102193.20
2018-05-04T22:54:36.683Z,102195.39
2018-05-04T22:57:02.558Z,102190.56
2018-05-04T22:59:28.406Z,102189.63
2018-05-04T23:01:54.433Z,102190.52
2018-05-04T23:04:20.258Z,102188.42
2018-05-04T23:06:46.804Z,102187.05
2018-05-04T23:09:12.741Z,102201.89
2018-05-04T23:11:38.589Z,102196.16
2018-05-04T23:14:04.442Z,102202.74
2018-05-04T23:16:30.342Z,102200.48
2018-05-04T23:18:56.281Z,102202.63
2018-05-04T23:21:22.140Z,102200.87
2018-05-04T23:23:48.043Z,102201.28
2018-05-04T23:26:13.910Z,102206.45
2018-05-04T23:28:39.770Z,102197.19
2018-05-04T23:31:05.788Z,102198.02
2018-05-04T23:33:31.638Z,102195.30
2018-05-04T23:35:57.502Z,102201.88
2018-05-04T23:38:23.408Z,102200.42
2018-05-04T23:40:49.294Z,102199.48
2018-05-04T23:43:15.222Z,102203.79
2018-05-04T23:45:41.499Z,102209.41
2018-05-04T23:48:07.343Z,102203.28
2018-05-04T23:50:33.270Z,102214.55
2018-05-04T23:52:59.176Z,102215.34
2018-05-04T23:55:25.126Z,102213.08
2018-05-04T23:57:50.996Z,102226.59
